• Join FlightAware (Why Join?)
  • Login
  • US Flag 
03:26PM EST


 

Airport Tracker/Info


-or-


 

Live Flight TrackerFlight Track Log ✈ EJA727 ✈ 25-Jun-2013 ✈ KTYS - KNEW

Flight Track Log - Related Links

Times and Time Zones

All times are in EDT time to prevent confusion due to time zone crossing. See the EJA727 flight status page for this flight to view local times or setup timezone preferences in your user account.

Time Position Orientation Groundspeed Altitude Reporting Facility
EDT Latitude Longitude Course Direction KTS MPH feet Rate Location/Type
05:24PM 35.7392 -84.0797 227° Southwest 222 255 5,900  Level Atlanta Center
05:25PM 35.6828 -84.1539 227° Southwest 260 299 9,600 3,180 Climbing Atlanta Center
05:26PM 35.6181 -84.2431 228° Southwest 312 359 12,300 2,880 Climbing Atlanta Center
05:27PM 35.5469 -84.3450 229° Southwest 362 417 15,400 3,000 Climbing Atlanta Center
05:28PM 35.4756 -84.4467 229° Southwest 391 450 18,300 2,940 Climbing Atlanta Center
05:29PM 35.4000 -84.5483 228° Southwest 402 463 21,300 2,400 Climbing Atlanta Center
05:30PM 35.3244 -84.6547 229° Southwest 408 470 23,100 1,680 Climbing Atlanta Center
05:31PM 35.2425 -84.7661 228° Southwest 429 494 24,700 1,560 Climbing Atlanta Center
05:32PM 35.1561 -84.8847 228° Southwest 450 518 26,300 1,620 Climbing Atlanta Center
05:33PM 35.0719 -85.0006 228° Southwest 457 526 28,000 1,560 Climbing Atlanta Center
05:34PM 34.9853 -85.1186 228° Southwest 469 540 29,500 1,200 Climbing Atlanta Center
05:35PM 34.8986 -85.2392 229° Southwest 474 545 30,400 960 Climbing Atlanta Center
05:36PM 34.8119 -85.3619 229° Southwest 480 552 31,500 960 Climbing Atlanta Center
05:37PM 34.7164 -85.4917 228° Southwest 480 552 32,400 900 Climbing Atlanta Center
05:38PM 34.6275 -85.6114 228° Southwest 480 552 33,400 960 Climbing Atlanta Center
05:39PM 34.5403 -85.7308 228° Southwest 480 552 34,400 960 Climbing Atlanta Center
05:40PM 34.4636 -85.8328 228° Southwest 480 552 35,400 960 Climbing Atlanta Center
05:41PM 34.3783 -85.9492 228° Southwest 474 545 36,400 960 Climbing Atlanta Center
05:42PM 34.2931 -86.0678 229° Southwest 479 551 37,400 780 Climbing Atlanta Center
05:43PM 34.2056 -86.1839 228° Southwest 479 551 38,000 300 Climbing Atlanta Center
05:44PM 34.1114 -86.3069 227° Southwest 474 545 38,000  Level Atlanta Center
05:45PM 34.0258 -86.4250 229° Southwest 474 545 38,000  Level Atlanta Center
05:46PM 33.9358 -86.5425 227° Southwest 474 545 38,000  Level Atlanta Center
05:47PM 33.8456 -86.6625 228° Southwest 479 551 38,000  Level Atlanta Center
05:48PM 33.7575 -86.7772 227° Southwest 479 551 38,000  Level Atlanta Center
05:49PM 33.6692 -86.8967 228° Southwest 479 551 38,000  Level Atlanta Center
05:50PM 33.5828 -87.0186 230° Southwest 479 551 38,000  Level Atlanta Center
05:51PM 33.5047 -87.1453 234° Southwest 479 551 38,000  Level Atlanta Center
05:52PM 33.4222 -87.2694 231° Southwest 479 551 38,000  Level Atlanta Center
05:54PM 33.2392 -87.5456 232° Southwest 474 545 38,000  Level Memphis Center
05:55PM 33.1561 -87.6650 230° Southwest 474 545 38,000  Level Memphis Center
05:56PM 33.0669 -87.7792 227° Southwest 474 545 38,000  Level Memphis Center
05:57PM 32.9600 -87.8689 215° Southwest 469 540 38,000  Level Memphis Center
05:58PM 32.8597 -87.9608 218° Southwest 469 540 38,000  Level Memphis Center
05:59PM 32.7547 -88.0500 216° Southwest 469 540 38,000  Level Memphis Center
06:00PM 32.6542 -88.1442 218° Southwest 474 545 38,000  Level Memphis Center
06:01PM 32.5494 -88.2353 216° Southwest 474 545 38,000  Level Memphis Center
06:02PM 32.4569 -88.3236 219° Southwest 475 547 38,000  Level Memphis Center
06:03PM 32.3561 -88.4144 217° Southwest 475 547 38,000  Level Memphis Center
06:04PM 32.2742 -88.5269 229° Southwest 468 539 38,000  Level Memphis Center
06:05PM 32.1947 -88.6536 233° Southwest 453 521 38,000 -540 Level Memphis Center
06:06PM 32.1169 -88.7778 234° Southwest 463 533 37,000 -1,320 Descending Memphis Center
06:07PM 32.0411 -88.9017 234° Southwest 469 540 35,400 -1,620 Descending Memphis Center
06:09PM 31.8697 -89.1725 233° Southwest 474 545 31,800 -1,560 Descending Houston Center
06:10PM 31.7908 -89.2978 233° Southwest 479 551 30,200 -1,560 Descending Houston Center
06:11PM 31.7097 -89.4258 233° Southwest 488 562 28,600 -1,560 Descending Houston Center
06:12PM 31.6092 -89.5464 226° Southwest 506 582 27,000 -1,800 Descending Houston Center
06:13PM 31.4817 -89.6689 219° Southwest 500 575 25,000 -1,440 Descending Houston Center
06:14PM 31.3667 -89.7517 212° Southwest 491 565 24,000 -900 Descending Houston Center
06:15PM 31.2506 -89.8294 210° Southwest 485 558 23,200 -1,380 Descending Houston Center
06:16PM 31.1378 -89.9039 209° Southwest 473 544 21,200 -1,980 Descending Houston Center
06:17PM 31.0244 -89.9650 205° Southwest 450 518 19,200 -1,920 Descending Houston Center
06:18PM 30.9192 -90.0167 203° Southwest 419 482 17,300 -2,100 Descending Houston Center
06:19PM 30.7956 -90.0767 203° Southwest 405 466 14,900 -2,160 Descending Houston Center
06:21PM 30.6978 -90.1244 203° Southwest 389 448 12,900 -1,800 Descending Houston Center
06:22PM 30.6006 -90.1372 186° South 366 421 11,200 -1,560 Descending Houston Center
06:23PM 30.5147 -90.1389 181° South 320 368 9,700 -1,620 Descending Houston Center
06:24PM 30.4186 -90.1411 181° South 295 339 7,900 -1,620 Descending Houston Center
06:25PM 30.3392 -90.1406 180° South 290 334 6,400 -1,440 Descending Houston Center
06:26PM 30.2625 -90.1419 181° South 283 326 5,000 -1,440 Descending Houston Center
06:27PM 30.1878 -90.1406 179° South 277 319 3,500 -1,260 Descending Houston Center
06:28PM 30.1200 -90.1400 180° South 262 302 2,500 -780 Descending Houston Center
06:29PM 30.0497 -90.1381 179° South 233 268 1,900 -540 Descending Houston Center
06:30PM 30.0083 -90.0983 140° Southeast 209 241 1,400 -360 Descending Houston Center
06:31PM 29.9883 -90.0553 118° Southeast 181 208 1,200 -420 Descending Houston Center
06:31PM 29.9961 -90.0297 71° East 158 182 800 -720 Descending Houston Center
06:32PM 30.0142 -90.0306 358° North 162 186 500 -360 Descending Houston Center
06:33PM 30.0525 -90.0322 358° North 157 181 300 -240 Descending Houston Center